createdAt,value
2022-11-07T00:01:15.829Z,9.70
2022-11-07T00:03:42.706Z,9.70
2022-11-07T00:06:09.714Z,9.70
2022-11-07T00:08:36.453Z,9.70
2022-11-07T00:11:04.915Z,9.70
2022-11-07T00:13:32.308Z,9.60
2022-11-07T00:16:04.031Z,9.70
2022-11-07T00:18:30.866Z,9.70
2022-11-07T00:21:05.085Z,9.70
2022-11-07T00:23:31.909Z,9.70
2022-11-07T00:26:07.306Z,9.70
2022-11-07T00:28:34.955Z,9.70
2022-11-07T00:31:01.650Z,9.70
2022-11-07T00:33:28.284Z,9.70
2022-11-07T00:35:54.924Z,9.70
2022-11-07T00:38:21.773Z,9.80
2022-11-07T00:40:56.207Z,9.80
2022-11-07T00:43:23.321Z,9.80
2022-11-07T00:45:50.261Z,9.80
2022-11-07T00:48:17.319Z,9.80
2022-11-07T00:50:43.929Z,9.80
2022-11-07T00:53:10.530Z,9.80
2022-11-07T00:55:37.410Z,9.80
2022-11-07T00:58:05.238Z,9.80
2022-11-07T01:00:34.184Z,9.80
2022-11-07T01:03:19.321Z,9.80
2022-11-07T01:05:56.241Z,9.80
2022-11-07T01:08:22.994Z,9.90
2022-11-07T01:10:49.629Z,9.80
2022-11-07T01:13:16.781Z,9.90
2022-11-07T01:15:43.863Z,9.90
2022-11-07T01:18:10.581Z,9.90
2022-11-07T01:20:37.366Z,9.90
2022-11-07T01:23:04.014Z,9.90
2022-11-07T01:25:30.613Z,9.90
2022-11-07T01:27:57.259Z,10.00
2022-11-07T01:30:23.876Z,10.00
2022-11-07T01:32:50.487Z,10.00
2022-11-07T01:35:17.079Z,10.00
2022-11-07T01:37:44.226Z,10.00
2022-11-07T01:40:11.251Z,10.00
2022-11-07T01:42:37.901Z,10.00
2022-11-07T01:45:05.026Z,9.90
2022-11-07T01:47:36.788Z,10.00
2022-11-07T01:50:06.110Z,10.00
2022-11-07T01:52:43.001Z,10.00
2022-11-07T01:55:32.655Z,9.90
2022-11-07T01:58:06.929Z,10.00
2022-11-07T02:00:36.229Z,9.90
2022-11-07T02:03:07.665Z,9.90
2022-11-07T02:05:54.800Z,9.90
2022-11-07T02:08:22.679Z,10.00
2022-11-07T02:10:50.049Z,10.00
2022-11-07T02:13:25.173Z,10.00
2022-11-07T02:15:52.241Z,10.00
2022-11-07T02:18:19.160Z,10.00
2022-11-07T02:20:46.427Z,10.00
2022-11-07T02:23:26.382Z,10.10
2022-11-07T02:25:54.030Z,10.10
2022-11-07T02:28:21.726Z,10.10
2022-11-07T02:30:48.311Z,10.10
2022-11-07T02:33:23.105Z,10.10
2022-11-07T02:35:51.901Z,10.10
2022-11-07T02:38:27.344Z,10.10
2022-11-07T02:41:29.210Z,10.10
2022-11-07T02:44:04.408Z,10.10
2022-11-07T02:46:32.357Z,10.10
2022-11-07T02:49:00.869Z,10.10
2022-11-07T02:51:28.244Z,10.00
2022-11-07T02:53:55.238Z,9.90
2022-11-07T02:56:23.081Z,9.90
2022-11-07T02:58:49.834Z,9.90
2022-11-07T03:01:16.579Z,9.80
2022-11-07T03:03:47.392Z,9.80
2022-11-07T03:06:25.143Z,9.80
2022-11-07T03:08:52.121Z,9.70
2022-11-07T03:11:19.672Z,9.70
2022-11-07T03:13:50.425Z,9.70
2022-11-07T03:16:18.183Z,9.70
2022-11-07T03:18:44.883Z,9.70
2022-11-07T03:21:11.523Z,9.70
2022-11-07T03:23:38.128Z,9.60
2022-11-07T03:26:05.101Z,9.60
2022-11-07T03:28:32.610Z,9.60
2022-11-07T03:31:04.339Z,9.60
2022-11-07T03:33:31.098Z,9.60
2022-11-07T03:35:57.970Z,9.70
2022-11-07T03:38:24.655Z,9.70
2022-11-07T03:40:51.311Z,9.60
2022-11-07T03:43:18.118Z,9.60
2022-11-07T03:45:44.735Z,9.50
2022-11-07T03:48:11.353Z,9.50
2022-11-07T03:50:37.997Z,9.50
2022-11-07T03:53:04.645Z,9.50
2022-11-07T03:55:31.210Z,9.50
2022-11-07T03:57:57.833Z,9.50
2022-11-07T04:00:24.417Z,9.50
2022-11-07T04:02:51.181Z,9.50
2022-11-07T04:05:18.121Z,9.50
2022-11-07T04:07:44.751Z,9.50
2022-11-07T04:10:11.537Z,9.50
2022-11-07T04:12:56.756Z,9.50
2022-11-07T04:15:41.900Z,9.50
2022-11-07T04:18:08.536Z,9.60
2022-11-07T04:20:35.166Z,9.60
2022-11-07T04:23:01.774Z,9.60
2022-11-07T04:26:03.963Z,9.70
2022-11-07T04:28:30.757Z,9.70
2022-11-07T04:30:57.713Z,9.60
2022-11-07T04:33:24.425Z,9.70
2022-11-07T04:35:51.099Z,9.70
2022-11-07T04:38:17.716Z,9.80
2022-11-07T04:40:44.331Z,9.80
2022-11-07T04:43:11.098Z,9.80
2022-11-07T04:45:38.943Z,9.90
2022-11-07T04:48:06.067Z,9.90
2022-11-07T04:50:32.709Z,10.00
2022-11-07T04:52:59.321Z,10.10
2022-11-07T04:55:27.835Z,10.00
2022-11-07T04:57:54.513Z,10.00
2022-11-07T05:00:21.415Z,10.00
2022-11-07T05:02:48.860Z,10.00
2022-11-07T05:05:16.265Z,10.00
2022-11-07T05:07:43.525Z,10.00
2022-11-07T05:10:18.892Z,10.10
2022-11-07T05:12:45.941Z,10.10
2022-11-07T05:15:12.677Z,10.10
2022-11-07T05:17:39.269Z,10.20
2022-11-07T05:20:06.444Z,10.20
2022-11-07T05:22:56.157Z,10.30
2022-11-07T05:25:23.494Z,10.30
2022-11-07T05:27:55.313Z,10.30
2022-11-07T05:30:21.919Z,10.40
2022-11-07T05:32:48.717Z,10.30
2022-11-07T05:35:15.397Z,10.30
2022-11-07T05:37:41.984Z,10.30
2022-11-07T05:40:09.109Z,10.30
2022-11-07T05:42:35.707Z,10.20
2022-11-07T05:45:02.337Z,10.20
2022-11-07T05:47:28.980Z,10.20
2022-11-07T05:49:55.570Z,10.10
2022-11-07T05:52:22.198Z,10.20
2022-11-07T05:54:48.997Z,10.10
2022-11-07T05:57:15.610Z,10.10
2022-11-07T05:59:42.270Z,10.10
2022-11-07T06:02:08.994Z,10.00
2022-11-07T06:04:35.885Z,10.00
2022-11-07T06:07:02.454Z,10.10
2022-11-07T06:09:29.054Z,10.10
2022-11-07T06:11:55.718Z,10.10
2022-11-07T06:14:22.443Z,10.10
2022-11-07T06:16:49.098Z,10.20
2022-11-07T06:19:15.769Z,10.30
2022-11-07T06:21:42.442Z,10.30
2022-11-07T06:24:15.023Z,10.30
2022-11-07T06:26:42.173Z,10.20
2022-11-07T06:29:08.760Z,10.20
2022-11-07T06:31:35.468Z,10.20
2022-11-07T06:34:02.066Z,10.20
2022-11-07T06:36:29.441Z,10.30
2022-11-07T06:38:56.076Z,10.30
2022-11-07T06:41:22.682Z,10.20
2022-11-07T06:43:52.030Z,10.20
2022-11-07T06:46:19.809Z,10.10
2022-11-07T06:48:46.449Z,10.10
2022-11-07T06:51:13.337Z,10.00
2022-11-07T06:53:40.349Z,10.00
2022-11-07T06:56:15.952Z,10.10
2022-11-07T06:58:42.929Z,10.10
2022-11-07T07:01:13.510Z,10.20
2022-11-07T07:03:41.311Z,10.20
2022-11-07T07:06:12.325Z,10.30
2022-11-07T07:08:39.374Z,10.30
2022-11-07T07:11:09.725Z,10.30
2022-11-07T07:13:37.150Z,10.20
2022-11-07T07:16:04.673Z,10.20
2022-11-07T07:18:31.453Z,10.30
2022-11-07T07:21:12.237Z,10.40
2022-11-07T07:23:39.690Z,10.40
2022-11-07T07:26:09.866Z,10.60
2022-11-07T07:28:37.220Z,10.70
2022-11-07T07:31:15.996Z,10.70
2022-11-07T07:33:43.922Z,10.80
2022-11-07T07:36:13.283Z,10.80
2022-11-07T07:38:43.736Z,10.80
2022-11-07T07:41:10.762Z,10.80
2022-11-07T07:43:37.356Z,10.80
2022-11-07T07:46:07.127Z,10.80
2022-11-07T07:48:33.952Z,10.90
2022-11-07T07:51:00.765Z,10.90
2022-11-07T07:53:27.465Z,10.90
2022-11-07T07:55:58.426Z,10.90
2022-11-07T07:58:26.234Z,11.00
2022-11-07T08:00:54.361Z,11.00
2022-11-07T08:03:21.195Z,11.20
2022-11-07T08:05:56.783Z,11.20
2022-11-07T08:08:24.174Z,11.30
2022-11-07T08:10:56.764Z,11.40
2022-11-07T08:13:26.734Z,11.40
2022-11-07T08:15:53.995Z,11.40
2022-11-07T08:18:24.449Z,11.50
2022-11-07T08:20:53.317Z,11.60
2022-11-07T08:23:20.556Z,11.70
2022-11-07T08:25:52.405Z,11.70
2022-11-07T08:28:25.743Z,11.80
2022-11-07T08:31:02.928Z,11.80
2022-11-07T08:33:29.954Z,11.80
2022-11-07T08:36:01.935Z,11.90
2022-11-07T08:38:30.257Z,11.90
2022-11-07T08:40:57.808Z,11.90
2022-11-07T08:43:25.126Z,12.00
2022-11-07T08:45:53.729Z,12.00
2022-11-07T08:48:21.545Z,11.90
2022-11-07T08:50:55.896Z,12.00
2022-11-07T08:53:24.024Z,12.00
2022-11-07T08:55:50.673Z,12.00
2022-11-07T08:58:17.960Z,12.00
2022-11-07T09:00:44.999Z,12.00
2022-11-07T09:05:59.305Z,12.10
2022-11-07T09:08:25.993Z,12.20
2022-11-07T09:10:52.569Z,12.30
2022-11-07T09:13:20.614Z,12.30
2022-11-07T09:15:51.104Z,12.30
2022-11-07T09:18:19.507Z,12.40
2022-11-07T09:20:46.316Z,12.40
2022-11-07T09:23:13.547Z,12.50
2022-11-07T09:25:40.469Z,12.60
2022-11-07T09:28:07.408Z,12.60
2022-11-07T09:30:34.038Z,12.60
2022-11-07T09:33:00.909Z,12.60
2022-11-07T09:35:28.016Z,12.60
2022-11-07T09:37:54.926Z,12.60
2022-11-07T09:40:27.078Z,12.70
2022-11-07T09:43:08.870Z,12.80
2022-11-07T09:45:49.546Z,12.90
2022-11-07T09:48:22.203Z,12.90
2022-11-07T09:50:50.384Z,12.90
2022-11-07T09:53:35.843Z,12.90
2022-11-07T09:56:06.573Z,12.90
2022-11-07T09:58:40.653Z,12.90
2022-11-07T10:01:19.406Z,12.90
2022-11-07T10:04:18.205Z,12.90
2022-11-07T10:06:45.709Z,12.90
2022-11-07T10:09:34.481Z,12.90
2022-11-07T10:12:30.174Z,12.90
2022-11-07T10:15:10.406Z,12.90
2022-11-07T10:18:17.730Z,12.80
2022-11-07T10:21:16.067Z,12.80
2022-11-07T10:24:19.775Z,12.80
2022-11-07T10:26:46.427Z,12.80
2022-11-07T10:29:20.545Z,12.70
2022-11-07T10:31:57.509Z,12.80
2022-11-07T10:34:41.529Z,12.70
2022-11-07T10:37:09.545Z,12.80
2022-11-07T10:39:36.153Z,12.70
2022-11-07T10:42:10.824Z,12.70
2022-11-07T10:44:40.549Z,12.70
2022-11-07T10:47:22.417Z,12.70
2022-11-07T10:49:57.604Z,12.60
2022-11-07T10:52:25.199Z,12.70
2022-11-07T10:54:51.858Z,12.70
2022-11-07T10:57:20.842Z,12.70
2022-11-07T10:59:57.511Z,12.70
2022-11-07T11:02:27.435Z,12.70
2022-11-07T11:05:00.721Z,12.70
2022-11-07T11:07:33.826Z,12.70
2022-11-07T11:10:00.500Z,12.70
2022-11-07T11:12:34.729Z,12.80
2022-11-07T11:15:19.178Z,12.80
2022-11-07T11:17:46.800Z,12.90
2022-11-07T11:20:54.822Z,12.90
2022-11-07T11:23:25.082Z,12.90
2022-11-07T11:25:58.350Z,12.80
2022-11-07T11:28:33.225Z,12.80
2022-11-07T11:31:07.200Z,12.80
2022-11-07T11:33:47.957Z,12.80
2022-11-07T11:36:21.533Z,12.80
2022-11-07T11:38:54.566Z,12.80
2022-11-07T11:41:53.156Z,12.80
2022-11-07T11:44:37.667Z,12.90
2022-11-07T11:47:22.581Z,13.00
2022-11-07T11:49:54.767Z,12.90
2022-11-07T11:52:24.043Z,12.90
2022-11-07T11:54:52.192Z,12.90
2022-11-07T11:58:32.726Z,13.00
2022-11-07T12:01:14.293Z,13.00
2022-11-07T12:03:57.697Z,12.90
2022-11-07T12:06:38.665Z,12.80
2022-11-07T12:09:17.297Z,12.80
2022-11-07T12:12:11.285Z,12.80
2022-11-07T12:14:43.980Z,12.70
2022-11-07T12:17:26.934Z,12.70
2022-11-07T12:20:17.875Z,12.50
2022-11-07T12:23:11.246Z,12.20
2022-11-07T12:25:43.420Z,12.00
2022-11-07T12:28:34.911Z,11.80
2022-11-07T12:31:10.356Z,11.80
2022-11-07T12:33:42.466Z,11.80
2022-11-07T12:36:29.155Z,11.80
2022-11-07T12:39:20.011Z,11.80
2022-11-07T12:42:13.786Z,11.80
2022-11-07T12:45:14.078Z,11.80
2022-11-07T12:48:06.250Z,11.90
2022-11-07T12:51:21.044Z,11.90
2022-11-07T12:54:15.251Z,11.90
2022-11-07T12:56:45.300Z,12.00
2022-11-07T12:59:26.852Z,12.10
2022-11-07T13:02:36.838Z,12.20
2022-11-07T13:05:27.387Z,12.30
2022-11-07T13:08:00.493Z,12.20
2022-11-07T13:10:50.804Z,12.30
2022-11-07T13:13:39.407Z,12.30
2022-11-07T13:16:24.270Z,12.40
2022-11-07T13:18:50.890Z,12.30
2022-11-07T13:21:17.525Z,12.20
2022-11-07T13:23:44.813Z,12.20
2022-11-07T13:26:32.935Z,12.20
2022-11-07T13:29:00.508Z,12.30
2022-11-07T13:31:38.558Z,12.40
2022-11-07T13:34:20.465Z,12.50
2022-11-07T13:36:49.818Z,12.60
2022-11-07T13:39:18.005Z,12.60
2022-11-07T13:41:46.010Z,12.70
2022-11-07T13:44:22.293Z,12.70
2022-11-07T13:47:04.192Z,12.80
2022-11-07T13:49:43.154Z,12.80
2022-11-07T13:52:33.677Z,12.80
2022-11-07T13:55:11.712Z,12.80
2022-11-07T13:57:42.847Z,12.80
2022-11-07T14:00:15.831Z,12.90
2022-11-07T14:02:57.014Z,12.90
2022-11-07T14:05:30.154Z,12.90
2022-11-07T14:08:01.188Z,12.90
2022-11-07T14:10:42.933Z,12.90
2022-11-07T14:13:20.563Z,12.90
2022-11-07T14:15:49.511Z,12.90
2022-11-07T14:18:18.477Z,12.90
2022-11-07T14:20:47.339Z,12.90
2022-11-07T14:23:14.054Z,12.90
2022-11-07T14:25:40.680Z,12.90
2022-11-07T14:28:16.023Z,12.90
2022-11-07T14:30:43.005Z,12.90
2022-11-07T14:33:21.012Z,12.90
2022-11-07T14:35:50.109Z,12.90
2022-11-07T14:38:27.087Z,12.90
2022-11-07T14:40:55.974Z,12.90
2022-11-07T14:43:25.269Z,12.90
2022-11-07T14:46:16.852Z,12.90
2022-11-07T14:48:45.088Z,12.90
2022-11-07T14:51:14.671Z,12.90
2022-11-07T14:53:59.359Z,12.80
2022-11-07T14:56:31.485Z,12.80
2022-11-07T14:58:58.769Z,12.80
2022-11-07T15:01:32.200Z,12.80
2022-11-07T15:04:34.194Z,12.80
2022-11-07T15:07:11.146Z,12.80
2022-11-07T15:09:38.073Z,12.80
2022-11-07T15:12:15.629Z,12.80
2022-11-07T15:14:42.393Z,12.80
2022-11-07T15:17:24.761Z,12.80
2022-11-07T15:19:57.775Z,12.70
2022-11-07T15:22:35.298Z,12.80
2022-11-07T15:25:02.033Z,12.80
2022-11-07T15:27:32.550Z,12.80
2022-11-07T15:30:05.462Z,12.80
2022-11-07T15:32:41.318Z,12.80
2022-11-07T15:35:42.331Z,12.80
2022-11-07T15:38:04.473Z,12.70
2022-11-07T15:40:31.531Z,12.60
2022-11-07T15:42:58.160Z,12.70
2022-11-07T15:45:24.898Z,12.70
2022-11-07T15:47:51.728Z,12.60
2022-11-07T15:50:21.434Z,12.60
2022-11-07T15:52:48.919Z,12.60
2022-11-07T15:55:20.786Z,12.60
2022-11-07T15:57:50.199Z,12.60
2022-11-07T16:00:21.905Z,12.50
2022-11-07T16:02:48.791Z,12.50
2022-11-07T16:05:16.062Z,12.60
2022-11-07T16:07:43.844Z,12.50
2022-11-07T16:10:20.614Z,12.50
2022-11-07T16:12:48.302Z,12.50
2022-11-07T16:15:17.273Z,12.50
2022-11-07T16:17:44.472Z,12.60
2022-11-07T16:20:20.405Z,12.50
2022-11-07T16:22:48.568Z,12.50
2022-11-07T16:25:21.403Z,12.50
2022-11-07T16:28:03.088Z,12.50
2022-11-07T16:30:29.948Z,12.60
2022-11-07T16:32:56.581Z,12.60
2022-11-07T16:35:23.492Z,12.60
2022-11-07T16:37:50.147Z,12.50
2022-11-07T16:40:19.390Z,12.50
2022-11-07T16:42:46.224Z,12.60
2022-11-07T16:45:19.005Z,12.60
2022-11-07T16:47:45.786Z,12.60
2022-11-07T16:50:16.618Z,12.50
2022-11-07T16:52:43.258Z,12.60
2022-11-07T16:55:17.586Z,12.60
2022-11-07T16:57:45.159Z,12.60
2022-11-07T17:00:21.550Z,12.60
2022-11-07T17:02:48.514Z,12.60
2022-11-07T17:05:15.602Z,12.60
2022-11-07T17:07:42.338Z,12.60
2022-11-07T17:10:15.133Z,12.60
2022-11-07T17:12:41.913Z,12.60
2022-11-07T17:15:09.537Z,12.60
2022-11-07T17:17:36.505Z,12.70
2022-11-07T17:20:03.221Z,12.70
2022-11-07T17:22:29.864Z,12.70
2022-11-07T17:24:56.445Z,12.70
2022-11-07T17:27:25.264Z,12.70
2022-11-07T17:29:53.288Z,12.70
2022-11-07T17:32:20.346Z,12.70
2022-11-07T17:34:59.282Z,12.60
2022-11-07T17:37:31.302Z,12.60
2022-11-07T17:39:57.914Z,12.60
2022-11-07T17:42:24.637Z,12.60
2022-11-07T17:44:51.254Z,12.70
2022-11-07T17:47:28.789Z,12.70
2022-11-07T17:49:55.824Z,12.70
2022-11-07T17:52:22.686Z,12.80
2022-11-07T17:54:49.433Z,12.70
2022-11-07T17:57:16.050Z,12.70
2022-11-07T17:59:45.898Z,12.70
2022-11-07T18:02:18.445Z,12.70
2022-11-07T18:04:46.188Z,12.70
2022-11-07T18:07:12.925Z,12.70
2022-11-07T18:09:42.977Z,12.70
2022-11-07T18:12:10.769Z,12.70
2022-11-07T18:14:37.866Z,12.60
2022-11-07T18:17:04.897Z,12.70
2022-11-07T18:19:31.578Z,12.60
2022-11-07T18:21:59.333Z,12.60
2022-11-07T18:24:25.941Z,12.50
2022-11-07T18:26:52.928Z,12.50
2022-11-07T18:29:19.583Z,12.50
2022-11-07T18:31:50.482Z,12.50
2022-11-07T18:34:17.380Z,12.40
2022-11-07T18:36:45.665Z,12.40
2022-11-07T18:39:21.357Z,12.40
2022-11-07T18:41:48.762Z,12.40
2022-11-07T18:44:15.872Z,12.40
2022-11-07T18:46:42.891Z,12.40
2022-11-07T18:49:11.129Z,12.40
2022-11-07T18:51:37.793Z,12.40
2022-11-07T18:54:05.110Z,12.30
2022-11-07T18:56:31.857Z,12.40
2022-11-07T18:58:58.821Z,12.40
2022-11-07T19:01:28.610Z,12.40
2022-11-07T19:03:57.187Z,12.30
2022-11-07T19:06:26.396Z,12.20
2022-11-07T19:08:53.576Z,12.30
2022-11-07T19:11:28.553Z,12.30
2022-11-07T19:13:56.210Z,12.20
2022-11-07T19:16:23.337Z,12.30
2022-11-07T19:18:51.198Z,12.30
2022-11-07T19:21:20.498Z,12.30
2022-11-07T19:23:48.599Z,12.30
2022-11-07T19:26:15.365Z,12.30
2022-11-07T19:28:42.036Z,12.40
2022-11-07T19:31:12.671Z,12.40
2022-11-07T19:33:41.038Z,12.40
2022-11-07T19:36:12.398Z,12.40
2022-11-07T19:38:39.060Z,12.40
2022-11-07T19:41:07.092Z,12.50
2022-11-07T19:43:34.847Z,12.50
2022-11-07T19:46:11.160Z,12.50
2022-11-07T19:48:37.797Z,12.60
2022-11-07T19:51:09.609Z,12.60
2022-11-07T19:53:36.375Z,12.60
2022-11-07T19:56:13.061Z,12.60
2022-11-07T19:58:40.262Z,12.60
2022-11-07T20:01:12.457Z,12.70
2022-11-07T20:03:39.416Z,12.70
2022-11-07T20:06:10.803Z,12.70
2022-11-07T20:08:38.304Z,12.70
2022-11-07T20:11:05.033Z,12.70
2022-11-07T20:13:31.699Z,12.80
2022-11-07T20:15:58.429Z,12.80
2022-11-07T20:18:25.189Z,12.80
2022-11-07T20:20:59.141Z,12.70
2022-11-07T20:23:25.728Z,12.80
2022-11-07T20:25:52.440Z,12.80
2022-11-07T20:28:19.097Z,12.80
2022-11-07T20:30:45.697Z,12.70
2022-11-07T20:33:12.325Z,12.80
2022-11-07T20:35:38.940Z,12.90
2022-11-07T20:38:06.004Z,12.90
2022-11-07T20:40:33.024Z,13.00
2022-11-07T20:43:01.622Z,13.00
2022-11-07T20:45:30.181Z,13.00
2022-11-07T20:47:56.770Z,13.00
2022-11-07T20:50:23.349Z,12.90
2022-11-07T20:52:49.969Z,12.90
2022-11-07T20:55:16.914Z,12.90
2022-11-07T20:57:43.956Z,12.90
2022-11-07T21:00:11.569Z,12.90
2022-11-07T21:02:38.162Z,12.90
2022-11-07T21:05:17.714Z,12.90
2022-11-07T21:07:45.042Z,13.00
2022-11-07T21:10:11.676Z,13.00
2022-11-07T21:12:38.294Z,13.00
2022-11-07T21:15:05.534Z,13.00
2022-11-07T21:17:32.424Z,13.00
2022-11-07T21:19:59.077Z,13.00
2022-11-07T21:22:29.403Z,13.00
2022-11-07T21:24:56.943Z,13.00
2022-11-07T21:27:23.583Z,13.00
2022-11-07T21:29:50.197Z,13.00
2022-11-07T21:32:16.793Z,13.00
2022-11-07T21:34:45.183Z,13.00
2022-11-07T21:37:11.914Z,13.00
2022-11-07T21:39:38.552Z,13.00
2022-11-07T21:42:05.362Z,13.00
2022-11-07T21:44:31.970Z,12.90
2022-11-07T21:46:58.597Z,12.90
2022-11-07T21:49:25.186Z,12.90
2022-11-07T21:51:51.860Z,12.90
2022-11-07T21:54:18.781Z,12.90
2022-11-07T21:56:45.393Z,12.90
2022-11-07T21:59:12.081Z,12.90
2022-11-07T22:01:40.085Z,12.90
2022-11-07T22:04:11.097Z,12.80
2022-11-07T22:06:41.827Z,12.80
2022-11-07T22:09:10.130Z,12.70
2022-11-07T22:11:36.992Z,12.70
2022-11-07T22:14:04.405Z,12.70
2022-11-07T22:16:31.755Z,12.70
2022-11-07T22:18:59.087Z,12.60
2022-11-07T22:21:25.713Z,12.60
2022-11-07T22:23:52.345Z,12.60
2022-11-07T22:26:24.153Z,12.50
2022-11-07T22:28:51.382Z,12.50
2022-11-07T22:31:19.106Z,12.50
2022-11-07T22:33:45.975Z,12.50
2022-11-07T22:36:13.481Z,12.40
2022-11-07T22:38:40.578Z,12.40
2022-11-07T22:41:18.204Z,12.40
2022-11-07T22:43:44.877Z,12.20
2022-11-07T22:46:13.878Z,12.10
2022-11-07T22:48:41.181Z,12.10
2022-11-07T22:51:20.018Z,12.10
2022-11-07T22:53:47.118Z,12.10
2022-11-07T22:56:18.794Z,12.00
2022-11-07T22:58:46.921Z,12.00
2022-11-07T23:01:31.527Z,11.90
2022-11-07T23:03:58.802Z,11.90
2022-11-07T23:06:27.346Z,11.80
2022-11-07T23:08:57.566Z,11.80
2022-11-07T23:11:48.909Z,11.70
2022-11-07T23:14:19.090Z,11.50
2022-11-07T23:16:51.776Z,11.40
2022-11-07T23:19:21.234Z,11.30
2022-11-07T23:21:49.190Z,11.20
2022-11-07T23:24:15.865Z,11.10
2022-11-07T23:26:42.741Z,11.00
2022-11-07T23:29:18.020Z,10.90
2022-11-07T23:31:46.882Z,10.90
2022-11-07T23:34:14.602Z,10.90
2022-11-07T23:36:43.690Z,10.90
2022-11-07T23:39:16.465Z,10.80
2022-11-07T23:41:43.498Z,10.60
2022-11-07T23:44:10.748Z,10.60
2022-11-07T23:46:56.027Z,10.60
2022-11-07T23:49:41.550Z,10.40
2022-11-07T23:52:08.416Z,10.40
2022-11-07T23:54:53.776Z,10.30
2022-11-07T23:57:20.450Z,10.30
